• Join FlightAware (Why Join?)
  • Login
  • US Flag 
06:24PM EDT


 

Airport Tracker/Info


-or-


 

Live Flight TrackerFlight Track Log ✈ THY2471 ✈ 19-Apr-2013 ✈ LTAF / ADA - LTBA / IST

Flight Track Log - Related Links

Times and Time Zones

All times are in EDT time to prevent confusion due to time zone crossing. See the THY2471 flight status page for this flight to view local times or setup timezone preferences in your user account.

Time Position Orientation Groundspeed Altitude Reporting Facility
EDT Latitude Longitude Course Direction KTS MPH feet Rate Location/Type
04:09PM 37.4705 34.5569 311° West  Level Estimated
04:10PM 37.5312 34.4658 310° West  Level Estimated
04:11PM 37.5919 34.3745 310° West  Level Estimated
04:12PM 37.6525 34.2831 310° West  Level Estimated
04:13PM 37.7130 34.1916 310° West  Level Estimated
04:14PM 37.7734 34.0999 310° West  Level Estimated
04:15PM 37.8338 34.0080 310° West  Level Estimated
04:16PM 37.8941 33.9160 310° West  Level Estimated
04:17PM 37.9543 33.8239 310° West  Level Estimated
04:18PM 38.0145 33.7316 310° West  Level Estimated
04:19PM 38.0746 33.6391 310° West  Level Estimated
04:20PM 38.1346 33.5465 310° West  Level Estimated
04:21PM 38.1945 33.4538 309° West  Level Estimated
04:22PM 38.2544 33.3609 309° West  Level Estimated
04:23PM 38.3142 33.2678 309° West  Level Estimated
04:24PM 38.3739 33.1746 309° West  Level Estimated
04:25PM 38.4336 33.0812 309° West  Level Estimated
04:26PM 38.4931 32.9877 309° West  Level Estimated
04:27PM 38.5526 32.8940 309° West  Level Estimated
04:28PM 38.6120 32.8002 309° West  Level Estimated
04:29PM 38.6714 32.7062 309° West  Level Estimated
04:30PM 38.7307 32.6121 309° West  Level Estimated
04:31PM 38.7899 32.5178 309° West  Level Estimated
04:32PM 38.8490 32.4233 309° West  Level Estimated
04:33PM 38.9080 32.3287 309° West  Level Estimated
04:34PM 38.9670 32.2339 309° West  Level Estimated
04:35PM 39.0259 32.1390 309° West  Level Estimated
04:36PM 39.0847 32.0439 309° West  Level Estimated
04:37PM 39.1435 31.9487 309° West  Level Estimated
04:38PM 39.2021 31.8533 308° West  Level Estimated
04:39PM 39.2607 31.7577 308° West  Level Estimated
04:40PM 39.3192 31.6620 308° West  Level Estimated
04:41PM 39.3776 31.5661 308° West  Level Estimated
04:42PM 39.4360 31.4701 308° West  Level Estimated
04:43PM 39.4942 31.3738 308° West  Level Estimated
04:44PM 39.5524 31.2775 308° West  Level Estimated
04:45PM 39.6105 31.1809 308° West  Level Estimated
04:46PM 39.6686 31.0842 308° West  Level Estimated
04:47PM 39.7265 30.9874 308° West  Level Estimated
04:48PM 39.7844 30.8904 308° West  Level Estimated
04:49PM 39.8422 30.7932 308° West  Level Estimated
04:50PM 39.8999 30.6959 308° West  Level Estimated
04:51PM 39.9575 30.5984 308° West  Level Estimated
04:52PM 40.0150 30.5007 308° West  Level Estimated
04:53PM 40.0725 30.4028 308° West  Level Estimated
04:54PM 40.1299 30.3048 307° West  Level Estimated
04:55PM 40.1872 30.2067 307° West  Level Estimated
04:56PM 40.2444 30.1083 307° West  Level Estimated
04:57PM 40.3015 30.0098 307° West  Level Estimated
04:58PM 40.3586 29.9112 307° West  Level Estimated
04:59PM 40.4155 29.8123 307° West  Level Estimated
05:00PM 40.4724 29.7134 307° West  Level Estimated
05:01PM 40.5292 29.6142 307° West  Level Estimated
05:02PM 40.5859 29.5149 307° West  Level Estimated
05:03PM 40.6425 29.4153 307° West  Level Estimated
05:04PM 40.6991 29.3157 307° West  Level Estimated
05:05PM 40.7555 29.2158 307° West  Level Estimated
05:06PM 40.8119 29.1158 307° West  Level Estimated
05:07PM 40.8681 29.0156 307° West  Level Estimated
05:08PM 40.9243 28.9153 307° West  Level Estimated
05:09PM 40.9769 28.8211 306° West  Level Estimated
05:10PM 40.9769 28.8211 21° North  Level Estimated
05:11PM 40.9769 28.8211 21° North  Level Estimated
05:12PM 40.9769 28.8211 21° North  Level Estimated
05:13PM 40.9769 28.8211 21° North  Level Estimated
05:14PM 40.9769 28.8211 21° North  Level Estimated
05:15PM 40.9769 28.8211 21° North  Level Estimated
05:16PM 40.9769 28.8211 21° North  Level Estimated
05:17PM 40.9769 28.8211 21° North  Level Estimated
05:18PM 40.9769 28.8211 21° North  Level Estimated
05:19PM 40.9769 28.8211 21° North  Level Estimated
05:20PM 40.9769 28.8211 21° North  Level Estimated
05:21PM 40.9769 28.8211 21° North  Level Estimated
05:22PM 40.9769 28.8211 21° North  Level Estimated
05:23PM 40.9769 28.8211 21° North  Level Estimated
05:24PM 40.9769 28.8211 21° North  Level Estimated
05:25PM 40.9769 28.8211 21° North  Level Estimated